sensor_id;sensor_type;location;lat;lon;timestamp;P1;durP1;ratioP1;P2;durP2;ratioP2
6928;SDS011;3504;52.616;13.238;2022-09-28T00:04:52;3.70;;;2.40;;
6928;SDS011;3504;52.616;13.238;2022-09-28T00:09:53;3.07;;;2.30;;
6928;SDS011;3504;52.616;13.238;2022-09-28T00:14:55;2.60;;;2.40;;
6928;SDS011;3504;52.616;13.238;2022-09-28T00:19:55;4.97;;;2.60;;
6928;SDS011;3504;52.616;13.238;2022-09-28T00:24:58;2.30;;;2.10;;
6928;SDS011;3504;52.616;13.238;2022-09-28T00:29:58;3.50;;;2.60;;
6928;SDS011;3504;52.616;13.238;2022-09-28T00:35:00;3.03;;;2.73;;
6928;SDS011;3504;52.616;13.238;2022-09-28T00:40:01;3.83;;;2.80;;
6928;SDS011;3504;52.616;13.238;2022-09-28T00:45:03;3.80;;;2.83;;
6928;SDS011;3504;52.616;13.238;2022-09-28T00:55:34;3.90;;;3.03;;
6928;SDS011;3504;52.616;13.238;2022-09-28T01:00:41;4.13;;;3.33;;
6928;SDS011;3504;52.616;13.238;2022-09-28T01:05:43;4.03;;;3.57;;
6928;SDS011;3504;52.616;13.238;2022-09-28T01:10:47;4.93;;;3.67;;
6928;SDS011;3504;52.616;13.238;2022-09-28T01:16:05;4.80;;;3.63;;
6928;SDS011;3504;52.616;13.238;2022-09-28T01:21:23;4.20;;;3.80;;
6928;SDS011;3504;52.616;13.238;2022-09-28T01:31:51;6.03;;;4.50;;
6928;SDS011;3504;52.616;13.238;2022-09-28T01:37:02;6.60;;;4.40;;
6928;SDS011;3504;52.616;13.238;2022-09-28T01:42:07;7.13;;;5.10;;
6928;SDS011;3504;52.616;13.238;2022-09-28T01:47:16;5.30;;;4.60;;
6928;SDS011;3504;52.616;13.238;2022-09-28T01:52:27;6.13;;;4.13;;
6928;SDS011;3504;52.616;13.238;2022-09-28T01:57:43;5.47;;;4.40;;
6928;SDS011;3504;52.616;13.238;2022-09-28T02:03:13;4.90;;;3.73;;
6928;SDS011;3504;52.616;13.238;2022-09-28T02:08:30;5.03;;;4.30;;
6928;SDS011;3504;52.616;13.238;2022-09-28T02:13:38;5.13;;;4.00;;
6928;SDS011;3504;52.616;13.238;2022-09-28T02:18:45;7.77;;;5.10;;
6928;SDS011;3504;52.616;13.238;2022-09-28T02:23:50;5.77;;;4.40;;
6928;SDS011;3504;52.616;13.238;2022-09-28T02:28:58;5.43;;;4.57;;
6928;SDS011;3504;52.616;13.238;2022-09-28T02:33:59;5.27;;;4.30;;
6928;SDS011;3504;52.616;13.238;2022-09-28T02:39:00;4.87;;;4.07;;
6928;SDS011;3504;52.616;13.238;2022-09-28T02:50:02;5.40;;;4.20;;
6928;SDS011;3504;52.616;13.238;2022-09-28T03:07:30;5.23;;;4.07;;
6928;SDS011;3504;52.616;13.238;2022-09-28T03:12:41;6.60;;;4.47;;
6928;SDS011;3504;52.616;13.238;2022-09-28T03:17:45;6.57;;;3.70;;
6928;SDS011;3504;52.616;13.238;2022-09-28T03:22:48;7.77;;;4.90;;
6928;SDS011;3504;52.616;13.238;2022-09-28T03:27:49;6.10;;;4.40;;
6928;SDS011;3504;52.616;13.238;2022-09-28T03:32:57;5.60;;;4.77;;
6928;SDS011;3504;52.616;13.238;2022-09-28T03:38:00;5.50;;;4.23;;
6928;SDS011;3504;52.616;13.238;2022-09-28T03:43:05;6.93;;;5.17;;
6928;SDS011;3504;52.616;13.238;2022-09-28T03:48:06;9.00;;;5.67;;
6928;SDS011;3504;52.616;13.238;2022-09-28T03:53:08;6.73;;;5.60;;
6928;SDS011;3504;52.616;13.238;2022-09-28T03:58:09;7.27;;;5.43;;
6928;SDS011;3504;52.616;13.238;2022-09-28T04:03:11;9.27;;;5.47;;
6928;SDS011;3504;52.616;13.238;2022-09-28T04:08:11;6.57;;;5.40;;
6928;SDS011;3504;52.616;13.238;2022-09-28T04:13:14;7.60;;;5.27;;
6928;SDS011;3504;52.616;13.238;2022-09-28T04:18:15;6.43;;;4.87;;
6928;SDS011;3504;52.616;13.238;2022-09-28T04:23:50;7.93;;;5.23;;
6928;SDS011;3504;52.616;13.238;2022-09-28T04:28:52;6.50;;;5.00;;
6928;SDS011;3504;52.616;13.238;2022-09-28T04:34:16;8.30;;;5.83;;
6928;SDS011;3504;52.616;13.238;2022-09-28T04:39:19;6.80;;;5.57;;
6928;SDS011;3504;52.616;13.238;2022-09-28T04:44:25;9.00;;;5.90;;
6928;SDS011;3504;52.616;13.238;2022-09-28T04:49:31;7.83;;;5.50;;
6928;SDS011;3504;52.616;13.238;2022-09-28T04:54:42;8.03;;;5.97;;
6928;SDS011;3504;52.616;13.238;2022-09-28T04:59:42;9.13;;;6.33;;
6928;SDS011;3504;52.616;13.238;2022-09-28T05:04:44;8.27;;;6.30;;
6928;SDS011;3504;52.616;13.238;2022-09-28T05:09:59;7.27;;;5.73;;
6928;SDS011;3504;52.616;13.238;2022-09-28T05:15:01;8.50;;;6.20;;
6928;SDS011;3504;52.616;13.238;2022-09-28T05:20:02;9.40;;;6.17;;
6928;SDS011;3504;52.616;13.238;2022-09-28T05:25:07;8.50;;;6.80;;
6928;SDS011;3504;52.616;13.238;2022-09-28T05:30:19;11.30;;;8.50;;
6928;SDS011;3504;52.616;13.238;2022-09-28T05:35:41;10.20;;;7.60;;
6928;SDS011;3504;52.616;13.238;2022-09-28T05:40:41;10.80;;;7.13;;
6928;SDS011;3504;52.616;13.238;2022-09-28T05:45:43;11.00;;;7.53;;
6928;SDS011;3504;52.616;13.238;2022-09-28T05:50:48;12.47;;;7.90;;
6928;SDS011;3504;52.616;13.238;2022-09-28T05:55:58;10.27;;;7.90;;
6928;SDS011;3504;52.616;13.238;2022-09-28T06:00:59;11.00;;;7.90;;
6928;SDS011;3504;52.616;13.238;2022-09-28T06:06:01;9.57;;;7.70;;
6928;SDS011;3504;52.616;13.238;2022-09-28T06:11:04;10.23;;;7.43;;
6928;SDS011;3504;52.616;13.238;2022-09-28T06:16:06;11.23;;;8.10;;
6928;SDS011;3504;52.616;13.238;2022-09-28T06:21:07;9.77;;;7.27;;
6928;SDS011;3504;52.616;13.238;2022-09-28T06:26:16;11.60;;;8.30;;
6928;SDS011;3504;52.616;13.238;2022-09-28T06:31:18;13.00;;;8.70;;
6928;SDS011;3504;52.616;13.238;2022-09-28T06:36:23;10.17;;;7.63;;
6928;SDS011;3504;52.616;13.238;2022-09-28T06:41:24;11.30;;;8.17;;
6928;SDS011;3504;52.616;13.238;2022-09-28T06:46:26;10.83;;;8.17;;
6928;SDS011;3504;52.616;13.238;2022-09-28T06:51:59;11.67;;;8.17;;
6928;SDS011;3504;52.616;13.238;2022-09-28T06:57:20;11.53;;;7.53;;
6928;SDS011;3504;52.616;13.238;2022-09-28T07:02:21;11.13;;;8.30;;
6928;SDS011;3504;52.616;13.238;2022-09-28T07:07:50;11.37;;;8.23;;
6928;SDS011;3504;52.616;13.238;2022-09-28T07:13:09;13.13;;;9.60;;
6928;SDS011;3504;52.616;13.238;2022-09-28T07:18:19;13.17;;;8.67;;
6928;SDS011;3504;52.616;13.238;2022-09-28T07:23:19;14.73;;;9.27;;
6928;SDS011;3504;52.616;13.238;2022-09-28T07:28:44;11.60;;;9.00;;
6928;SDS011;3504;52.616;13.238;2022-09-28T07:34:14;14.63;;;8.90;;
6928;SDS011;3504;52.616;13.238;2022-09-28T07:39:34;13.97;;;10.00;;
6928;SDS011;3504;52.616;13.238;2022-09-28T07:44:57;12.20;;;9.27;;
6928;SDS011;3504;52.616;13.238;2022-09-28T07:49:59;11.63;;;8.77;;
6928;SDS011;3504;52.616;13.238;2022-09-28T07:55:22;14.00;;;8.50;;
6928;SDS011;3504;52.616;13.238;2022-09-28T08:00:40;10.50;;;7.53;;
6928;SDS011;3504;52.616;13.238;2022-09-28T08:05:40;15.47;;;8.83;;
6928;SDS011;3504;52.616;13.238;2022-09-28T08:10:43;8.93;;;7.43;;
6928;SDS011;3504;52.616;13.238;2022-09-28T08:16:00;10.70;;;8.20;;
6928;SDS011;3504;52.616;13.238;2022-09-28T08:21:12;11.07;;;8.07;;
6928;SDS011;3504;52.616;13.238;2022-09-28T08:26:31;10.80;;;8.37;;
6928;SDS011;3504;52.616;13.238;2022-09-28T08:31:32;12.80;;;9.47;;
6928;SDS011;3504;52.616;13.238;2022-09-28T08:37:01;12.20;;;8.83;;
6928;SDS011;3504;52.616;13.238;2022-09-28T08:42:38;11.60;;;9.27;;
6928;SDS011;3504;52.616;13.238;2022-09-28T08:48:21;13.73;;;9.83;;
6928;SDS011;3504;52.616;13.238;2022-09-28T08:59:40;11.83;;;9.37;;
6928;SDS011;3504;52.616;13.238;2022-09-28T09:04:58;12.47;;;10.03;;
6928;SDS011;3504;52.616;13.238;2022-09-28T09:10:17;12.00;;;9.67;;
6928;SDS011;3504;52.616;13.238;2022-09-28T09:16:17;13.23;;;8.90;;
6928;SDS011;3504;52.616;13.238;2022-09-28T09:21:58;12.10;;;8.80;;
6928;SDS011;3504;52.616;13.238;2022-09-28T09:27:05;11.27;;;8.83;;
6928;SDS011;3504;52.616;13.238;2022-09-28T09:45:30;8.20;;;6.90;;
6928;SDS011;3504;52.616;13.238;2022-09-28T09:51:12;7.67;;;6.43;;
6928;SDS011;3504;52.616;13.238;2022-09-28T09:56:41;7.03;;;4.93;;
6928;SDS011;3504;52.616;13.238;2022-09-28T10:02:24;6.73;;;5.20;;
6928;SDS011;3504;52.616;13.238;2022-09-28T10:07:44;4.37;;;3.63;;
6928;SDS011;3504;52.616;13.238;2022-09-28T10:13:05;5.30;;;4.33;;
6928;SDS011;3504;52.616;13.238;2022-09-28T10:18:09;4.33;;;3.93;;
6928;SDS011;3504;52.616;13.238;2022-09-28T10:23:23;3.37;;;2.97;;
6928;SDS011;3504;52.616;13.238;2022-09-28T10:28:32;6.27;;;2.60;;
6928;SDS011;3504;52.616;13.238;2022-09-28T10:33:51;4.87;;;2.83;;
6928;SDS011;3504;52.616;13.238;2022-09-28T10:38:52;3.93;;;2.93;;
6928;SDS011;3504;52.616;13.238;2022-09-28T10:44:01;3.97;;;2.93;;
6928;SDS011;3504;52.616;13.238;2022-09-28T10:49:16;8.03;;;2.60;;
6928;SDS011;3504;52.616;13.238;2022-09-28T10:54:29;4.13;;;2.10;;
6928;SDS011;3504;52.616;13.238;2022-09-28T10:59:39;5.30;;;2.27;;
6928;SDS011;3504;52.616;13.238;2022-09-28T11:05:01;2.70;;;2.20;;
6928;SDS011;3504;52.616;13.238;2022-09-28T11:10:17;8.00;;;2.20;;
6928;SDS011;3504;52.616;13.238;2022-09-28T11:15:28;4.33;;;1.97;;
6928;SDS011;3504;52.616;13.238;2022-09-28T11:20:35;4.67;;;1.80;;
6928;SDS011;3504;52.616;13.238;2022-09-28T11:25:41;2.03;;;1.53;;
6928;SDS011;3504;52.616;13.238;2022-09-28T11:31:01;3.00;;;1.60;;
6928;SDS011;3504;52.616;13.238;2022-09-28T11:47:12;2.30;;;1.47;;
6928;SDS011;3504;52.616;13.238;2022-09-28T11:52:51;2.70;;;1.40;;
6928;SDS011;3504;52.616;13.238;2022-09-28T11:58:36;1.70;;;1.27;;
6928;SDS011;3504;52.616;13.238;2022-09-28T12:03:45;2.80;;;1.30;;
6928;SDS011;3504;52.616;13.238;2022-09-28T12:08:55;2.13;;;1.60;;
6928;SDS011;3504;52.616;13.238;2022-09-28T12:14:33;3.27;;;1.37;;
6928;SDS011;3504;52.616;13.238;2022-09-28T12:20:13;3.53;;;1.67;;
6928;SDS011;3504;52.616;13.238;2022-09-28T12:25:39;2.60;;;1.63;;
6928;SDS011;3504;52.616;13.238;2022-09-28T12:30:46;1.53;;;1.43;;
6928;SDS011;3504;52.616;13.238;2022-09-28T12:35:53;1.90;;;1.30;;
6928;SDS011;3504;52.616;13.238;2022-09-28T12:52:27;1.37;;;1.03;;
6928;SDS011;3504;52.616;13.238;2022-09-28T12:57:57;1.20;;;1.10;;
6928;SDS011;3504;52.616;13.238;2022-09-28T13:09:08;1.10;;;1.00;;
6928;SDS011;3504;52.616;13.238;2022-09-28T13:14:43;1.37;;;1.10;;
6928;SDS011;3504;52.616;13.238;2022-09-28T13:20:13;2.60;;;1.20;;
6928;SDS011;3504;52.616;13.238;2022-09-28T13:25:22;1.43;;;1.10;;
6928;SDS011;3504;52.616;13.238;2022-09-28T13:30:26;1.83;;;1.20;;
6928;SDS011;3504;52.616;13.238;2022-09-28T13:35:28;2.03;;;1.00;;
6928;SDS011;3504;52.616;13.238;2022-09-28T13:46:17;2.30;;;1.03;;
6928;SDS011;3504;52.616;13.238;2022-09-28T13:51:52;0.90;;;0.70;;
6928;SDS011;3504;52.616;13.238;2022-09-28T14:02:44;1.93;;;1.00;;
6928;SDS011;3504;52.616;13.238;2022-09-28T14:08:35;2.20;;;1.00;;
6928;SDS011;3504;52.616;13.238;2022-09-28T14:13:56;1.53;;;1.00;;
6928;SDS011;3504;52.616;13.238;2022-09-28T14:35:15;0.80;;;0.80;;
6928;SDS011;3504;52.616;13.238;2022-09-28T14:40:26;1.10;;;1.00;;
6928;SDS011;3504;52.616;13.238;2022-09-28T14:45:50;2.50;;;1.10;;
6928;SDS011;3504;52.616;13.238;2022-09-28T14:56:32;1.80;;;1.07;;
6928;SDS011;3504;52.616;13.238;2022-09-28T15:01:59;1.33;;;1.07;;
6928;SDS011;3504;52.616;13.238;2022-09-28T15:12:27;3.37;;;1.40;;
6928;SDS011;3504;52.616;13.238;2022-09-28T15:17:33;1.67;;;1.57;;
6928;SDS011;3504;52.616;13.238;2022-09-28T15:22:37;9.20;;;3.17;;
6928;SDS011;3504;52.616;13.238;2022-09-28T15:27:49;11.37;;;3.97;;
6928;SDS011;3504;52.616;13.238;2022-09-28T15:32:58;9.07;;;2.90;;
6928;SDS011;3504;52.616;13.238;2022-09-28T15:38:18;3.10;;;2.33;;
6928;SDS011;3504;52.616;13.238;2022-09-28T15:43:26;5.70;;;2.83;;
6928;SDS011;3504;52.616;13.238;2022-09-28T15:54:00;3.80;;;3.40;;
6928;SDS011;3504;52.616;13.238;2022-09-28T16:15:26;4.47;;;3.10;;
6928;SDS011;3504;52.616;13.238;2022-09-28T16:20:35;4.80;;;3.40;;
6928;SDS011;3504;52.616;13.238;2022-09-28T16:25:38;3.13;;;2.83;;
6928;SDS011;3504;52.616;13.238;2022-09-28T16:31:06;2.90;;;2.60;;
6928;SDS011;3504;52.616;13.238;2022-09-28T16:36:21;3.50;;;3.20;;
6928;SDS011;3504;52.616;13.238;2022-09-28T16:41:23;3.27;;;3.00;;
6928;SDS011;3504;52.616;13.238;2022-09-28T16:46:30;4.83;;;3.43;;
6928;SDS011;3504;52.616;13.238;2022-09-28T16:51:36;4.53;;;3.83;;
6928;SDS011;3504;52.616;13.238;2022-09-28T16:56:40;6.23;;;4.10;;
6928;SDS011;3504;52.616;13.238;2022-09-28T17:01:40;3.13;;;2.80;;
6928;SDS011;3504;52.616;13.238;2022-09-28T17:06:43;4.60;;;3.90;;
6928;SDS011;3504;52.616;13.238;2022-09-28T17:11:44;3.87;;;3.10;;
6928;SDS011;3504;52.616;13.238;2022-09-28T17:16:46;3.23;;;2.93;;
6928;SDS011;3504;52.616;13.238;2022-09-28T17:21:52;4.57;;;3.17;;
6928;SDS011;3504;52.616;13.238;2022-09-28T17:26:53;3.83;;;1.87;;
6928;SDS011;3504;52.616;13.238;2022-09-28T17:31:54;1.70;;;1.60;;
6928;SDS011;3504;52.616;13.238;2022-09-28T17:36:55;1.70;;;1.60;;
6928;SDS011;3504;52.616;13.238;2022-09-28T17:41:56;3.33;;;1.50;;
6928;SDS011;3504;52.616;13.238;2022-09-28T17:46:58;1.90;;;1.80;;
6928;SDS011;3504;52.616;13.238;2022-09-28T17:52:00;2.53;;;2.33;;
6928;SDS011;3504;52.616;13.238;2022-09-28T17:57:03;2.40;;;2.20;;
6928;SDS011;3504;52.616;13.238;2022-09-28T18:02:04;3.13;;;2.70;;
6928;SDS011;3504;52.616;13.238;2022-09-28T18:07:05;4.77;;;3.40;;
6928;SDS011;3504;52.616;13.238;2022-09-28T18:12:06;3.37;;;3.07;;
6928;SDS011;3504;52.616;13.238;2022-09-28T18:17:08;4.20;;;3.90;;
6928;SDS011;3504;52.616;13.238;2022-09-28T18:22:08;5.13;;;4.33;;
6928;SDS011;3504;52.616;13.238;2022-09-28T18:27:09;4.17;;;3.77;;
6928;SDS011;3504;52.616;13.238;2022-09-28T18:32:10;6.13;;;5.20;;
6928;SDS011;3504;52.616;13.238;2022-09-28T18:37:12;7.63;;;5.70;;
6928;SDS011;3504;52.616;13.238;2022-09-28T18:42:12;11.20;;;6.80;;
6928;SDS011;3504;52.616;13.238;2022-09-28T18:47:15;7.67;;;6.40;;
6928;SDS011;3504;52.616;13.238;2022-09-28T18:52:16;10.10;;;6.90;;
6928;SDS011;3504;52.616;13.238;2022-09-28T18:57:18;7.10;;;5.57;;
6928;SDS011;3504;52.616;13.238;2022-09-28T19:02:18;7.17;;;5.23;;
6928;SDS011;3504;52.616;13.238;2022-09-28T19:07:20;8.07;;;5.47;;
6928;SDS011;3504;52.616;13.238;2022-09-28T19:12:21;8.17;;;6.57;;
6928;SDS011;3504;52.616;13.238;2022-09-28T19:17:24;8.13;;;6.00;;
6928;SDS011;3504;52.616;13.238;2022-09-28T19:22:24;6.47;;;5.83;;
6928;SDS011;3504;52.616;13.238;2022-09-28T19:27:25;6.67;;;6.07;;
6928;SDS011;3504;52.616;13.238;2022-09-28T19:32:25;9.07;;;7.20;;
6928;SDS011;3504;52.616;13.238;2022-09-28T19:37:27;11.43;;;8.03;;
6928;SDS011;3504;52.616;13.238;2022-09-28T19:42:27;11.50;;;8.10;;
6928;SDS011;3504;52.616;13.238;2022-09-28T19:47:29;13.00;;;8.30;;
6928;SDS011;3504;52.616;13.238;2022-09-28T19:52:30;10.83;;;9.53;;
6928;SDS011;3504;52.616;13.238;2022-09-28T19:57:32;14.67;;;10.17;;
6928;SDS011;3504;52.616;13.238;2022-09-28T20:02:33;9.90;;;8.90;;
6928;SDS011;3504;52.616;13.238;2022-09-28T20:07:35;8.67;;;7.77;;
6928;SDS011;3504;52.616;13.238;2022-09-28T20:12:36;9.87;;;8.53;;
6928;SDS011;3504;52.616;13.238;2022-09-28T20:17:39;8.10;;;7.00;;
6928;SDS011;3504;52.616;13.238;2022-09-28T20:22:39;7.93;;;7.07;;
6928;SDS011;3504;52.616;13.238;2022-09-28T20:27:42;12.00;;;10.47;;
6928;SDS011;3504;52.616;13.238;2022-09-28T20:32:43;11.27;;;10.10;;
6928;SDS011;3504;52.616;13.238;2022-09-28T20:37:44;12.53;;;11.23;;
6928;SDS011;3504;52.616;13.238;2022-09-28T20:42:46;11.57;;;10.27;;
6928;SDS011;3504;52.616;13.238;2022-09-28T20:47:48;10.67;;;9.67;;
6928;SDS011;3504;52.616;13.238;2022-09-28T20:52:49;9.60;;;8.70;;
6928;SDS011;3504;52.616;13.238;2022-09-28T20:57:50;10.17;;;8.63;;
6928;SDS011;3504;52.616;13.238;2022-09-28T21:02:51;8.30;;;7.23;;
6928;SDS011;3504;52.616;13.238;2022-09-28T21:07:52;7.13;;;6.43;;
6928;SDS011;3504;52.616;13.238;2022-09-28T21:12:53;7.50;;;5.90;;
6928;SDS011;3504;52.616;13.238;2022-09-28T21:17:55;6.10;;;5.50;;
6928;SDS011;3504;52.616;13.238;2022-09-28T21:22:55;6.10;;;5.10;;
6928;SDS011;3504;52.616;13.238;2022-09-28T21:27:56;6.20;;;5.60;;
6928;SDS011;3504;52.616;13.238;2022-09-28T21:32:56;5.60;;;4.77;;
6928;SDS011;3504;52.616;13.238;2022-09-28T21:37:58;6.43;;;5.67;;
6928;SDS011;3504;52.616;13.238;2022-09-28T21:42:58;6.73;;;5.30;;
6928;SDS011;3504;52.616;13.238;2022-09-28T21:48:00;7.23;;;5.37;;
6928;SDS011;3504;52.616;13.238;2022-09-28T21:53:01;5.83;;;5.23;;
6928;SDS011;3504;52.616;13.238;2022-09-28T21:58:03;6.53;;;5.70;;
6928;SDS011;3504;52.616;13.238;2022-09-28T22:03:03;6.20;;;5.30;;
6928;SDS011;3504;52.616;13.238;2022-09-28T22:08:05;8.77;;;6.70;;
6928;SDS011;3504;52.616;13.238;2022-09-28T22:13:06;10.07;;;7.10;;
6928;SDS011;3504;52.616;13.238;2022-09-28T22:18:07;9.27;;;7.00;;
6928;SDS011;3504;52.616;13.238;2022-09-28T22:23:08;9.37;;;7.87;;
6928;SDS011;3504;52.616;13.238;2022-09-28T22:28:08;8.33;;;6.73;;
6928;SDS011;3504;52.616;13.238;2022-09-28T22:33:09;7.03;;;5.93;;
6928;SDS011;3504;52.616;13.238;2022-09-28T22:38:10;6.17;;;5.53;;
6928;SDS011;3504;52.616;13.238;2022-09-28T22:43:12;8.00;;;6.20;;
6928;SDS011;3504;52.616;13.238;2022-09-28T22:48:14;7.17;;;6.03;;
6928;SDS011;3504;52.616;13.238;2022-09-28T22:53:14;7.77;;;6.10;;
6928;SDS011;3504;52.616;13.238;2022-09-28T22:58:16;6.80;;;6.07;;
6928;SDS011;3504;52.616;13.238;2022-09-28T23:03:17;7.57;;;5.90;;
6928;SDS011;3504;52.616;13.238;2022-09-28T23:08:18;7.90;;;5.90;;
6928;SDS011;3504;52.616;13.238;2022-09-28T23:13:19;8.33;;;5.73;;
6928;SDS011;3504;52.616;13.238;2022-09-28T23:18:21;6.10;;;5.30;;
6928;SDS011;3504;52.616;13.238;2022-09-28T23:23:22;8.57;;;5.80;;
6928;SDS011;3504;52.616;13.238;2022-09-28T23:28:23;8.10;;;6.33;;
6928;SDS011;3504;52.616;13.238;2022-09-28T23:33:25;7.80;;;6.43;;
6928;SDS011;3504;52.616;13.238;2022-09-28T23:38:27;10.37;;;7.53;;
6928;SDS011;3504;52.616;13.238;2022-09-28T23:43:28;9.93;;;7.23;;
6928;SDS011;3504;52.616;13.238;2022-09-28T23:48:29;8.80;;;7.03;;
6928;SDS011;3504;52.616;13.238;2022-09-28T23:53:30;11.03;;;7.70;;
6928;SDS011;3504;52.616;13.238;2022-09-28T23:58:35;9.33;;;6.97;;
